createdAt,value
2022-12-15T00:00:16.144Z,87.63
2022-12-15T00:01:16.131Z,87.59
2022-12-15T00:02:16.177Z,87.54
2022-12-15T00:03:16.162Z,87.53
2022-12-15T00:04:16.098Z,87.53
2022-12-15T00:05:16.086Z,87.55
2022-12-15T00:06:16.104Z,87.52
2022-12-15T00:07:16.076Z,87.52
2022-12-15T00:08:16.060Z,87.53
2022-12-15T00:09:18.666Z,87.54
2022-12-15T00:10:16.036Z,87.56
2022-12-15T00:11:16.004Z,87.57
2022-12-15T00:12:15.996Z,87.56
2022-12-15T00:13:16.000Z,87.54
2022-12-15T00:14:15.981Z,87.49
2022-12-15T00:15:15.952Z,87.49
2022-12-15T00:16:15.984Z,87.48
2022-12-15T00:17:15.926Z,87.46
2022-12-15T00:18:15.922Z,87.42
2022-12-15T00:19:15.915Z,87.41
2022-12-15T00:20:15.894Z,87.40
2022-12-15T00:21:15.875Z,87.39
2022-12-15T00:22:15.871Z,87.32
2022-12-15T00:23:15.856Z,87.28
2022-12-15T00:24:15.857Z,87.25
2022-12-15T00:25:15.834Z,87.26
2022-12-15T00:26:15.816Z,87.29
2022-12-15T00:27:15.807Z,87.32
2022-12-15T00:28:15.800Z,87.35
2022-12-15T00:29:15.777Z,87.30
2022-12-15T00:30:15.776Z,87.29
2022-12-15T00:31:15.813Z,87.29
2022-12-15T00:32:15.746Z,87.34
2022-12-15T00:33:15.726Z,87.38
2022-12-15T00:34:15.724Z,87.40
2022-12-15T00:35:15.713Z,87.40
2022-12-15T00:36:15.703Z,87.43
2022-12-15T00:37:15.686Z,87.44
2022-12-15T00:38:15.669Z,87.43
2022-12-15T00:39:15.651Z,87.41
2022-12-15T00:40:15.644Z,87.38
2022-12-15T00:41:15.644Z,87.37
2022-12-15T00:42:15.635Z,87.39
2022-12-15T00:43:15.605Z,87.38
2022-12-15T00:44:20.325Z,87.35
2022-12-15T00:45:15.584Z,87.35
2022-12-15T00:46:15.756Z,87.37
2022-12-15T00:47:15.553Z,87.37
2022-12-15T00:48:15.552Z,87.40
2022-12-15T00:49:15.546Z,87.39
2022-12-15T00:50:15.521Z,87.39
2022-12-15T00:51:15.501Z,87.34
2022-12-15T00:52:15.490Z,87.35
2022-12-15T00:53:15.478Z,87.38
2022-12-15T00:54:18.198Z,87.33
2022-12-15T00:55:15.449Z,87.30
2022-12-15T00:56:15.438Z,87.28
2022-12-15T00:57:15.426Z,87.28
2022-12-15T00:58:15.429Z,87.28
2022-12-15T00:59:15.413Z,87.25
2022-12-15T01:00:15.397Z,87.20
2022-12-15T01:01:15.383Z,87.18
2022-12-15T01:02:15.539Z,87.14
2022-12-15T01:03:15.469Z,87.13
2022-12-15T01:04:15.433Z,87.11
2022-12-15T01:05:15.340Z,87.07
2022-12-15T01:06:15.315Z,87.04
2022-12-15T01:07:15.310Z,87.05
2022-12-15T01:08:15.293Z,87.05
2022-12-15T01:09:15.274Z,87.08
2022-12-15T01:10:15.283Z,87.10
2022-12-15T01:11:15.260Z,87.10
2022-12-15T01:12:15.243Z,87.06
2022-12-15T01:13:15.228Z,87.05
2022-12-15T01:14:15.203Z,87.05
2022-12-15T01:15:15.200Z,87.02
2022-12-15T01:16:15.271Z,87.01
2022-12-15T01:17:15.171Z,86.98
2022-12-15T01:18:15.154Z,86.97
2022-12-15T01:19:15.154Z,86.97
2022-12-15T01:20:15.145Z,86.94
2022-12-15T01:21:15.132Z,86.94
2022-12-15T01:22:15.117Z,86.91
2022-12-15T01:23:15.096Z,86.90
2022-12-15T01:24:15.081Z,86.88
2022-12-15T01:25:15.076Z,86.88
2022-12-15T01:26:15.064Z,86.89
2022-12-15T01:27:15.045Z,86.88
2022-12-15T01:28:15.036Z,86.86
2022-12-15T01:29:15.029Z,86.86
2022-12-15T01:30:15.008Z,86.88
2022-12-15T01:31:15.081Z,86.88
2022-12-15T01:32:14.980Z,86.85
2022-12-15T01:33:14.970Z,86.85
2022-12-15T01:34:14.960Z,86.85
2022-12-15T01:35:14.952Z,86.96
2022-12-15T01:36:14.925Z,86.96
2022-12-15T01:37:14.920Z,86.96
2022-12-15T01:38:14.910Z,86.94
2022-12-15T01:39:14.894Z,86.89
2022-12-15T01:40:14.897Z,86.81
2022-12-15T01:41:14.871Z,86.74
2022-12-15T01:42:14.856Z,86.74
2022-12-15T01:43:14.844Z,86.77
2022-12-15T01:44:14.830Z,86.71
2022-12-15T01:45:14.815Z,86.67
2022-12-15T01:46:14.871Z,86.68
2022-12-15T01:47:14.888Z,86.66
2022-12-15T01:48:14.780Z,86.65
2022-12-15T01:49:14.769Z,86.65
2022-12-15T01:50:14.752Z,86.59
2022-12-15T01:51:14.749Z,86.56
2022-12-15T01:52:14.726Z,86.61
2022-12-15T01:53:14.721Z,86.66
2022-12-15T01:54:14.701Z,86.69
2022-12-15T01:55:14.693Z,86.71
2022-12-15T01:56:14.693Z,86.75
2022-12-15T01:57:14.689Z,86.75
2022-12-15T01:58:14.650Z,86.70
2022-12-15T01:59:14.640Z,86.69
2022-12-15T02:00:14.625Z,86.67
2022-12-15T02:01:14.703Z,86.58
2022-12-15T02:02:14.694Z,86.50
2022-12-15T02:03:14.697Z,86.42
2022-12-15T02:04:14.586Z,86.38
2022-12-15T02:05:14.569Z,86.35
2022-12-15T02:06:14.562Z,86.38
2022-12-15T02:07:14.558Z,86.40
2022-12-15T02:08:14.526Z,86.39
2022-12-15T02:09:14.534Z,86.43
2022-12-15T02:10:14.499Z,86.44
2022-12-15T02:11:14.489Z,86.45
2022-12-15T02:12:14.478Z,86.43
2022-12-15T02:13:14.483Z,86.39
2022-12-15T02:14:14.454Z,86.38
2022-12-15T02:15:14.452Z,86.39
2022-12-15T02:16:14.462Z,86.38
2022-12-15T02:17:14.422Z,86.41
2022-12-15T02:18:14.415Z,86.52
2022-12-15T02:19:14.395Z,86.49
2022-12-15T02:20:14.394Z,86.41
2022-12-15T02:21:14.369Z,86.38
2022-12-15T02:22:14.357Z,86.42
2022-12-15T02:23:14.342Z,86.47
2022-12-15T02:24:14.347Z,86.36
2022-12-15T02:25:14.316Z,86.33
2022-12-15T02:26:14.311Z,86.25
2022-12-15T02:27:14.298Z,86.21
2022-12-15T02:28:14.275Z,86.12
2022-12-15T02:29:14.270Z,85.98
2022-12-15T02:30:14.298Z,85.90
2022-12-15T02:31:14.329Z,85.83
2022-12-15T02:32:14.224Z,85.86
2022-12-15T02:33:14.222Z,85.88
2022-12-15T02:34:14.201Z,85.96
2022-12-15T02:35:14.194Z,86.01
2022-12-15T02:36:14.201Z,86.03
2022-12-15T02:37:14.181Z,86.01
2022-12-15T02:38:14.150Z,86.02
2022-12-15T02:39:14.155Z,85.99
2022-12-15T02:40:14.127Z,86.00
2022-12-15T02:41:14.116Z,86.01
2022-12-15T02:42:14.120Z,85.92
2022-12-15T02:43:14.087Z,86.02
2022-12-15T02:44:14.074Z,86.06
2022-12-15T02:45:14.073Z,86.06
2022-12-15T02:46:14.142Z,86.05
2022-12-15T02:47:14.047Z,85.97
2022-12-15T02:48:14.026Z,85.95
2022-12-15T02:49:14.023Z,85.96
2022-12-15T02:50:14.002Z,85.90
2022-12-15T02:51:14.005Z,85.82
2022-12-15T02:52:13.986Z,85.75
2022-12-15T02:53:13.965Z,85.74
2022-12-15T02:54:13.960Z,85.70
2022-12-15T02:55:13.939Z,85.73
2022-12-15T02:56:13.924Z,85.82
2022-12-15T02:57:13.916Z,85.88
2022-12-15T02:58:13.906Z,85.89
2022-12-15T02:59:13.886Z,85.90
2022-12-15T03:00:13.877Z,85.92
2022-12-15T03:01:13.913Z,85.85
2022-12-15T03:02:13.993Z,85.63
2022-12-15T03:03:13.884Z,85.54
2022-12-15T03:04:13.822Z,85.42
2022-12-15T03:05:13.811Z,85.34
2022-12-15T03:06:13.811Z,85.38
2022-12-15T03:07:13.792Z,85.47
2022-12-15T03:08:13.775Z,85.47
2022-12-15T03:09:13.781Z,85.42
2022-12-15T03:10:13.744Z,85.41
2022-12-15T03:11:13.735Z,85.53
2022-12-15T03:12:13.726Z,85.60
2022-12-15T03:13:13.715Z,85.56
2022-12-15T03:14:13.708Z,85.34
2022-12-15T03:15:13.702Z,85.15
2022-12-15T03:16:13.702Z,85.11
2022-12-15T03:17:13.662Z,85.11
2022-12-15T03:18:13.665Z,85.09
2022-12-15T03:19:22.888Z,85.02
2022-12-15T03:20:13.732Z,85.02
2022-12-15T03:21:13.637Z,85.11
2022-12-15T03:22:13.617Z,85.19
2022-12-15T03:23:13.586Z,85.21
2022-12-15T03:24:13.574Z,85.19
2022-12-15T03:25:13.588Z,85.19
2022-12-15T03:26:13.543Z,85.24
2022-12-15T03:27:13.565Z,85.32
2022-12-15T03:28:13.537Z,85.38
2022-12-15T03:29:13.520Z,85.38
2022-12-15T03:30:13.511Z,85.42
2022-12-15T03:31:13.668Z,85.38
2022-12-15T03:32:13.566Z,85.39
2022-12-15T03:33:13.469Z,85.30
2022-12-15T03:34:13.444Z,85.23
2022-12-15T03:35:13.432Z,85.23
2022-12-15T03:36:13.427Z,85.27
2022-12-15T03:37:13.413Z,85.28
2022-12-15T03:38:13.405Z,85.28
2022-12-15T03:39:13.391Z,85.26
2022-12-15T03:40:13.381Z,85.20
2022-12-15T03:41:13.401Z,85.04
2022-12-15T03:42:13.345Z,84.92
2022-12-15T03:43:13.327Z,84.92
2022-12-15T03:44:13.327Z,84.85
2022-12-15T03:45:13.327Z,84.74
2022-12-15T03:46:13.325Z,84.60
2022-12-15T03:47:13.284Z,84.42
2022-12-15T03:48:13.285Z,84.50
2022-12-15T03:49:13.281Z,84.58
2022-12-15T03:50:13.247Z,84.54
2022-12-15T03:51:13.240Z,84.56
2022-12-15T03:52:13.228Z,84.42
2022-12-15T03:53:13.220Z,84.38
2022-12-15T03:54:13.193Z,84.47
2022-12-15T03:55:13.181Z,84.54
2022-12-15T03:56:13.184Z,84.46
2022-12-15T03:57:13.221Z,84.49
2022-12-15T03:58:13.153Z,84.51
2022-12-15T03:59:13.148Z,84.57
2022-12-15T04:00:13.139Z,84.65
2022-12-15T04:01:13.211Z,84.71
2022-12-15T04:02:13.227Z,84.66
2022-12-15T04:03:13.174Z,84.73
2022-12-15T04:04:13.082Z,84.80
2022-12-15T04:05:13.071Z,84.73
2022-12-15T04:06:13.060Z,84.67
2022-12-15T04:07:13.030Z,84.59
2022-12-15T04:08:13.039Z,84.61
2022-12-15T04:09:13.017Z,84.63
2022-12-15T04:10:12.990Z,84.58
2022-12-15T04:11:13.015Z,84.57
2022-12-15T04:12:12.972Z,84.50
2022-12-15T04:13:12.962Z,84.40
2022-12-15T04:14:12.964Z,84.29
2022-12-15T04:15:12.942Z,84.31
2022-12-15T04:16:17.911Z,84.41
2022-12-15T04:17:12.948Z,84.42
2022-12-15T04:18:12.890Z,84.39
2022-12-15T04:19:12.902Z,84.37
2022-12-15T04:20:12.870Z,84.45
2022-12-15T04:21:12.875Z,84.45
2022-12-15T04:22:17.816Z,84.48
2022-12-15T04:23:12.851Z,84.54
2022-12-15T04:24:12.816Z,84.58
2022-12-15T04:25:12.809Z,84.67
2022-12-15T04:26:12.814Z,84.74
2022-12-15T04:27:12.787Z,84.71
2022-12-15T04:28:12.761Z,84.62
2022-12-15T04:29:12.775Z,84.60
2022-12-15T04:30:12.738Z,84.66
2022-12-15T04:31:12.854Z,84.65
2022-12-15T04:32:12.715Z,84.60
2022-12-15T04:33:12.723Z,84.46
2022-12-15T04:34:12.694Z,84.34
2022-12-15T04:35:12.683Z,84.37
2022-12-15T04:36:13.577Z,84.20
2022-12-15T04:37:12.691Z,84.17
2022-12-15T04:38:12.636Z,84.07
2022-12-15T04:39:12.646Z,84.12
2022-12-15T04:40:12.621Z,84.22
2022-12-15T04:41:12.638Z,84.09
2022-12-15T04:42:12.611Z,83.99
2022-12-15T04:43:12.601Z,83.92
2022-12-15T04:44:12.595Z,83.93
2022-12-15T04:45:18.579Z,83.95
2022-12-15T04:46:12.603Z,83.89
2022-12-15T04:47:12.546Z,83.83
2022-12-15T04:48:12.625Z,83.90
2022-12-15T04:49:12.613Z,83.94
2022-12-15T04:50:12.492Z,84.01
2022-12-15T04:51:12.480Z,84.00
2022-12-15T04:52:12.485Z,83.98
2022-12-15T04:53:12.467Z,83.85
2022-12-15T04:54:12.460Z,83.88
2022-12-15T04:55:12.425Z,83.94
2022-12-15T04:56:18.061Z,84.05
2022-12-15T04:57:12.452Z,84.12
2022-12-15T04:58:12.391Z,84.18
2022-12-15T04:59:12.418Z,84.27
2022-12-15T05:00:12.367Z,84.37
2022-12-15T05:01:12.412Z,84.38
2022-12-15T05:02:12.466Z,84.44
2022-12-15T05:03:17.961Z,84.46
2022-12-15T05:04:12.385Z,84.42
2022-12-15T05:05:12.322Z,84.36
2022-12-15T05:06:12.287Z,84.35
2022-12-15T05:07:12.298Z,84.29
2022-12-15T05:08:12.278Z,84.27
2022-12-15T05:09:12.269Z,84.26
2022-12-15T05:10:15.195Z,84.31
2022-12-15T05:11:12.231Z,84.36
2022-12-15T05:12:12.214Z,84.38
2022-12-15T05:13:12.229Z,84.34
2022-12-15T05:14:12.200Z,84.19
2022-12-15T05:15:12.172Z,84.20
2022-12-15T05:16:12.296Z,84.33
2022-12-15T05:17:12.185Z,84.34
2022-12-15T05:18:12.156Z,84.39
2022-12-15T05:19:12.505Z,84.45
2022-12-15T05:20:12.121Z,84.45
2022-12-15T05:21:12.098Z,84.44
2022-12-15T05:22:12.090Z,84.31
2022-12-15T05:23:12.088Z,84.21
2022-12-15T05:24:12.090Z,84.25
2022-12-15T05:25:12.054Z,84.23
2022-12-15T05:26:12.059Z,84.24
2022-12-15T05:27:12.025Z,84.30
2022-12-15T05:28:12.016Z,84.35
2022-12-15T05:29:12.022Z,84.31
2022-12-15T05:30:12.000Z,84.32
2022-12-15T05:31:12.062Z,84.38
2022-12-15T05:32:12.008Z,84.35
2022-12-15T05:33:11.946Z,84.23
2022-12-15T05:34:11.961Z,84.25
2022-12-15T05:35:11.939Z,84.23
2022-12-15T05:36:11.915Z,84.08
2022-12-15T05:37:11.908Z,83.96
2022-12-15T05:38:11.954Z,84.00
2022-12-15T05:39:11.870Z,84.05
2022-12-15T05:40:11.873Z,84.13
2022-12-15T05:41:11.857Z,84.17
2022-12-15T05:42:11.861Z,84.19
2022-12-15T05:43:11.842Z,84.25
2022-12-15T05:44:11.814Z,84.22
2022-12-15T05:45:11.796Z,84.30
2022-12-15T05:46:11.843Z,84.36
2022-12-15T05:47:11.772Z,84.16
2022-12-15T05:48:11.772Z,83.97
2022-12-15T05:49:11.748Z,83.98
2022-12-15T05:50:11.747Z,83.87
2022-12-15T05:51:11.719Z,83.87
2022-12-15T05:52:11.718Z,83.88
2022-12-15T05:53:11.707Z,83.81
2022-12-15T05:54:11.779Z,83.75
2022-12-15T05:55:11.678Z,83.83
2022-12-15T05:56:11.689Z,83.86
2022-12-15T05:57:11.672Z,83.84
2022-12-15T05:58:11.637Z,83.94
2022-12-15T05:59:11.646Z,83.98
2022-12-15T06:00:11.626Z,83.85
2022-12-15T06:01:11.630Z,83.74
2022-12-15T06:02:11.683Z,83.75
2022-12-15T06:03:11.601Z,83.74
2022-12-15T06:04:11.593Z,83.78
2022-12-15T06:05:11.557Z,83.83
2022-12-15T06:06:11.545Z,83.88
2022-12-15T06:07:11.544Z,83.91
2022-12-15T06:08:11.543Z,83.94
2022-12-15T06:09:11.511Z,83.92
2022-12-15T06:10:11.491Z,83.80
2022-12-15T06:11:11.515Z,83.72
2022-12-15T06:12:11.471Z,83.66
2022-12-15T06:13:11.479Z,83.56
2022-12-15T06:14:11.431Z,83.54
2022-12-15T06:15:11.446Z,83.44
2022-12-15T06:16:11.446Z,83.63
2022-12-15T06:17:11.397Z,83.63
2022-12-15T06:18:11.412Z,83.58
2022-12-15T06:19:11.371Z,83.51
2022-12-15T06:20:11.448Z,83.47
2022-12-15T06:21:11.357Z,83.59
2022-12-15T06:22:11.333Z,83.68
2022-12-15T06:23:11.326Z,83.76
2022-12-15T06:24:11.312Z,83.82
2022-12-15T06:25:11.311Z,83.83
2022-12-15T06:26:11.329Z,83.80
2022-12-15T06:27:11.396Z,83.84
2022-12-15T06:28:11.294Z,83.80
2022-12-15T06:29:11.316Z,83.77
2022-12-15T06:30:11.292Z,83.71
2022-12-15T06:31:11.326Z,83.70
2022-12-15T06:32:11.218Z,83.77
2022-12-15T06:33:11.318Z,83.80
2022-12-15T06:34:23.540Z,83.80
2022-12-15T06:35:11.277Z,83.76
2022-12-15T06:36:11.164Z,83.76
2022-12-15T06:37:11.301Z,83.75
2022-12-15T06:38:11.141Z,83.71
2022-12-15T06:39:11.122Z,83.77
2022-12-15T06:40:11.115Z,83.81
2022-12-15T06:41:11.118Z,83.82
2022-12-15T06:42:11.085Z,83.88
2022-12-15T06:43:11.076Z,83.87
2022-12-15T06:44:11.070Z,83.85
2022-12-15T06:45:11.047Z,83.90
2022-12-15T06:46:11.087Z,83.93
2022-12-15T06:47:11.109Z,83.88
2022-12-15T06:48:11.003Z,83.77
2022-12-15T06:49:11.040Z,83.58
2022-12-15T06:50:11.002Z,83.59
2022-12-15T06:51:16.787Z,83.59
2022-12-15T06:52:10.982Z,83.64
2022-12-15T06:53:10.941Z,83.62
2022-12-15T06:54:10.951Z,83.48
2022-12-15T06:55:10.920Z,83.52
2022-12-15T06:56:10.904Z,83.57
2022-12-15T06:57:11.005Z,83.39
2022-12-15T06:58:10.877Z,83.33
2022-12-15T06:59:10.896Z,83.32
2022-12-15T07:00:10.871Z,83.43
2022-12-15T07:01:10.859Z,83.48
2022-12-15T07:02:11.094Z,83.51
2022-12-15T07:03:11.071Z,83.33
2022-12-15T07:04:10.943Z,83.34
2022-12-15T07:05:10.788Z,83.43
2022-12-15T07:06:10.783Z,83.44
2022-12-15T07:07:10.806Z,83.27
2022-12-15T07:08:10.774Z,83.04
2022-12-15T07:09:10.785Z,82.86
2022-12-15T07:10:10.779Z,82.83
2022-12-15T07:11:10.739Z,82.91
2022-12-15T07:12:10.703Z,82.89
2022-12-15T07:13:10.691Z,82.86
2022-12-15T07:14:10.704Z,82.79
2022-12-15T07:15:10.694Z,82.72
2022-12-15T07:16:10.747Z,82.73
2022-12-15T07:17:10.688Z,82.70
2022-12-15T07:18:10.648Z,82.69
2022-12-15T07:19:10.611Z,82.70
2022-12-15T07:20:10.619Z,82.71
2022-12-15T07:21:10.601Z,82.75
2022-12-15T07:22:10.597Z,82.88
2022-12-15T07:23:10.565Z,82.96
2022-12-15T07:24:10.551Z,83.02
2022-12-15T07:25:10.539Z,82.93
2022-12-15T07:26:11.825Z,82.91
2022-12-15T07:27:10.521Z,82.97
2022-12-15T07:28:10.503Z,82.99
2022-12-15T07:29:10.507Z,83.04
2022-12-15T07:30:10.487Z,83.08
2022-12-15T07:31:10.476Z,83.08
2022-12-15T07:32:10.458Z,83.02
2022-12-15T07:33:10.440Z,82.86
2022-12-15T07:34:10.440Z,82.72
2022-12-15T07:35:10.420Z,82.69
2022-12-15T07:36:10.408Z,82.73
2022-12-15T07:37:10.400Z,82.76
2022-12-15T07:38:10.385Z,82.79
2022-12-15T07:39:10.391Z,82.76
2022-12-15T07:40:10.411Z,82.73
2022-12-15T07:41:10.361Z,82.71
2022-12-15T07:42:10.335Z,82.72
2022-12-15T07:43:10.314Z,82.70
2022-12-15T07:44:10.359Z,82.63
2022-12-15T07:45:10.309Z,82.57
2022-12-15T07:46:10.367Z,82.54
2022-12-15T07:47:10.327Z,82.46
2022-12-15T07:48:10.257Z,82.46
2022-12-15T07:49:10.284Z,82.38
2022-12-15T07:50:10.233Z,82.33
2022-12-15T07:51:18.903Z,82.51
2022-12-15T07:52:10.216Z,82.56
2022-12-15T07:53:10.187Z,82.65
2022-12-15T07:54:10.236Z,82.64
2022-12-15T07:55:10.166Z,82.62
2022-12-15T07:56:10.578Z,82.58
2022-12-15T07:57:10.150Z,82.57
2022-12-15T07:58:10.151Z,82.58
2022-12-15T07:59:10.145Z,82.61
2022-12-15T08:00:10.125Z,82.59
2022-12-15T08:01:10.269Z,82.48
2022-12-15T08:02:10.238Z,82.35
2022-12-15T08:03:10.295Z,82.30
2022-12-15T08:04:10.055Z,82.25
2022-12-15T08:05:10.077Z,82.32
2022-12-15T08:06:10.072Z,82.34
2022-12-15T08:07:10.021Z,82.27
2022-12-15T08:08:15.235Z,82.39
2022-12-15T08:09:09.991Z,82.39
2022-12-15T08:10:10.026Z,82.46
2022-12-15T08:11:09.996Z,82.59
2022-12-15T08:12:09.974Z,82.64
2022-12-15T08:13:09.984Z,82.64
2022-12-15T08:14:16.765Z,82.74
2022-12-15T08:15:09.931Z,82.61
2022-12-15T08:16:09.930Z,82.40
2022-12-15T08:17:09.899Z,82.42
2022-12-15T08:18:09.892Z,82.33
2022-12-15T08:19:09.868Z,82.28
2022-12-15T08:20:10.294Z,82.31
2022-12-15T08:21:09.839Z,82.31
2022-12-15T08:22:09.850Z,82.30
2022-12-15T08:23:09.809Z,82.41
2022-12-15T08:24:09.826Z,82.50
2022-12-15T08:25:09.782Z,82.56
2022-12-15T08:26:09.778Z,82.60
2022-12-15T08:27:09.771Z,82.56
2022-12-15T08:28:09.764Z,82.60
2022-12-15T08:29:50.245Z,82.64
2022-12-15T08:30:09.745Z,82.62
2022-12-15T08:31:09.729Z,82.58
2022-12-15T08:32:09.853Z,82.54
2022-12-15T08:33:09.686Z,82.52
2022-12-15T08:34:09.673Z,82.45
2022-12-15T08:35:31.878Z,82.37
2022-12-15T08:36:09.661Z,82.36
2022-12-15T08:37:09.659Z,82.21
2022-12-15T08:38:09.628Z,82.12
2022-12-15T08:39:09.646Z,82.10
2022-12-15T08:40:09.610Z,82.15
2022-12-15T08:41:09.582Z,82.06
2022-12-15T08:42:09.573Z,82.00
2022-12-15T08:43:09.581Z,81.96
2022-12-15T08:44:09.554Z,81.89
2022-12-15T08:45:09.547Z,81.85
2022-12-15T08:46:09.586Z,81.90
2022-12-15T08:47:09.558Z,81.93
2022-12-15T08:48:09.499Z,81.98
2022-12-15T08:49:09.486Z,82.00
2022-12-15T08:50:09.479Z,82.00
2022-12-15T08:51:09.459Z,81.96
2022-12-15T08:52:09.457Z,81.98
2022-12-15T08:53:41.418Z,81.97
2022-12-15T08:54:09.434Z,81.94
2022-12-15T08:55:09.432Z,81.96
2022-12-15T08:56:09.408Z,82.05
2022-12-15T08:57:09.396Z,82.11
2022-12-15T08:58:09.383Z,82.14
2022-12-15T08:59:09.384Z,82.12
2022-12-15T09:00:09.364Z,81.94
2022-12-15T09:01:09.442Z,81.86
2022-12-15T09:02:09.467Z,81.86
2022-12-15T09:03:09.324Z,81.82
2022-12-15T09:04:09.347Z,81.89
2022-12-15T09:05:09.282Z,81.92
2022-12-15T09:06:09.311Z,81.83
2022-12-15T09:07:09.295Z,81.74
2022-12-15T09:08:09.265Z,81.60
2022-12-15T09:09:09.238Z,81.63
2022-12-15T09:10:09.242Z,81.68
2022-12-15T09:11:09.226Z,81.68
2022-12-15T09:12:09.261Z,81.76
2022-12-15T09:13:09.186Z,81.84
2022-12-15T09:14:09.197Z,81.91
2022-12-15T09:15:09.182Z,81.95
2022-12-15T09:16:10.707Z,81.90
2022-12-15T09:17:09.290Z,81.88
2022-12-15T09:18:09.172Z,81.84
2022-12-15T09:19:09.128Z,81.80
2022-12-15T09:20:09.103Z,81.64
2022-12-15T09:21:09.135Z,81.40
2022-12-15T09:22:09.073Z,81.40
2022-12-15T09:23:09.073Z,81.38
2022-12-15T09:24:09.059Z,81.37
2022-12-15T09:25:09.052Z,81.33
2022-12-15T09:26:09.022Z,81.33
2022-12-15T09:27:09.044Z,81.25
2022-12-15T09:28:08.991Z,81.33
2022-12-15T09:29:08.989Z,81.25
2022-12-15T09:30:09.058Z,81.11
2022-12-15T09:31:09.072Z,81.12
2022-12-15T09:32:13.777Z,81.24
2022-12-15T09:33:08.939Z,81.26
2022-12-15T09:34:08.923Z,81.24
2022-12-15T09:35:08.913Z,81.30
2022-12-15T09:36:08.913Z,81.41
2022-12-15T09:37:08.896Z,81.52
2022-12-15T09:38:08.878Z,81.57
2022-12-15T09:39:08.915Z,81.49
2022-12-15T09:40:08.860Z,81.37
2022-12-15T09:41:08.836Z,81.40
2022-12-15T09:42:08.818Z,81.48
2022-12-15T09:43:33.551Z,81.43
2022-12-15T09:44:08.813Z,81.44
2022-12-15T09:45:08.814Z,81.48
2022-12-15T09:46:08.834Z,81.43
2022-12-15T09:47:08.774Z,81.36
2022-12-15T09:48:08.743Z,81.39
2022-12-15T09:49:08.749Z,81.41
2022-12-15T09:50:08.775Z,81.20
2022-12-15T09:51:08.709Z,81.15
2022-12-15T09:52:11.217Z,81.12
2022-12-15T09:53:23.333Z,81.05
2022-12-15T09:54:08.710Z,81.07
2022-12-15T09:55:08.730Z,81.08
2022-12-15T09:56:08.656Z,81.08
2022-12-15T09:57:08.682Z,81.14
2022-12-15T09:58:11.073Z,81.11
2022-12-15T09:59:08.627Z,81.13
2022-12-15T10:00:08.596Z,81.12
2022-12-15T10:01:08.584Z,81.19
2022-12-15T10:02:08.711Z,81.26
2022-12-15T10:03:08.762Z,81.27
2022-12-15T10:04:08.642Z,81.34
2022-12-15T10:05:08.557Z,81.32
2022-12-15T10:06:17.635Z,81.37
2022-12-15T10:07:08.542Z,81.47
2022-12-15T10:08:08.497Z,81.53
2022-12-15T10:09:08.499Z,81.54
2022-12-15T10:10:08.470Z,81.44
2022-12-15T10:11:08.532Z,81.39
2022-12-15T10:12:08.458Z,81.40
2022-12-15T10:13:08.447Z,81.38
2022-12-15T10:14:08.423Z,81.36
2022-12-15T10:15:08.416Z,81.25
2022-12-15T10:16:08.456Z,81.20
2022-12-15T10:17:08.417Z,81.27
2022-12-15T10:18:08.373Z,81.22
2022-12-15T10:19:08.361Z,81.25
2022-12-15T10:20:08.425Z,81.25
2022-12-15T10:21:08.352Z,81.26
2022-12-15T10:22:08.371Z,81.31
2022-12-15T10:23:08.378Z,81.26
2022-12-15T10:24:08.303Z,81.27
2022-12-15T10:25:10.137Z,81.28
2022-12-15T10:26:08.272Z,81.23
2022-12-15T10:27:08.259Z,81.26
2022-12-15T10:28:08.280Z,81.20
2022-12-15T10:29:08.236Z,81.14
2022-12-15T10:30:08.332Z,81.10
2022-12-15T10:31:08.298Z,81.12
2022-12-15T10:32:08.198Z,81.22
2022-12-15T10:33:08.184Z,81.23
2022-12-15T10:34:08.169Z,81.18
2022-12-15T10:35:08.171Z,81.19
2022-12-15T10:36:08.148Z,81.25
2022-12-15T10:37:08.134Z,81.29
2022-12-15T10:38:08.116Z,81.34
2022-12-15T10:39:11.577Z,81.29
2022-12-15T10:40:08.140Z,81.24
2022-12-15T10:41:08.081Z,81.24
2022-12-15T10:42:08.112Z,81.21
2022-12-15T10:43:08.091Z,81.22
2022-12-15T10:44:08.079Z,81.25
2022-12-15T10:45:08.031Z,81.18
2022-12-15T10:46:08.083Z,81.11
2022-12-15T10:47:08.005Z,81.15
2022-12-15T10:48:08.005Z,81.18
2022-12-15T10:49:08.011Z,81.21
2022-12-15T10:50:07.982Z,81.23
2022-12-15T10:51:07.985Z,81.20
2022-12-15T10:52:07.950Z,81.28
2022-12-15T10:53:07.930Z,81.35
2022-12-15T10:54:07.938Z,81.39
2022-12-15T10:55:07.926Z,81.35
2022-12-15T10:56:07.899Z,81.37
2022-12-15T10:57:07.890Z,81.36
2022-12-15T10:58:07.869Z,81.35
2022-12-15T10:59:07.856Z,81.29
2022-12-15T11:00:07.848Z,81.31
2022-12-15T11:01:07.910Z,81.37
2022-12-15T11:02:08.046Z,81.48
2022-12-15T11:03:07.962Z,81.54
2022-12-15T11:04:07.837Z,81.54
2022-12-15T11:05:07.815Z,81.52
2022-12-15T11:06:07.817Z,81.56
2022-12-15T11:07:07.775Z,81.58
2022-12-15T11:08:10.751Z,81.64
2022-12-15T11:09:07.736Z,81.68
2022-12-15T11:10:07.724Z,81.71
2022-12-15T11:11:07.943Z,81.79
2022-12-15T11:12:11.956Z,81.85
2022-12-15T11:13:07.701Z,81.86
2022-12-15T11:14:07.666Z,81.81
2022-12-15T11:15:07.665Z,81.58
2022-12-15T11:16:07.649Z,81.40
2022-12-15T11:17:07.641Z,81.39
2022-12-15T11:18:07.629Z,81.43
2022-12-15T11:19:07.640Z,81.42
2022-12-15T11:20:07.600Z,81.40
2022-12-15T11:21:07.593Z,81.38
2022-12-15T11:22:07.571Z,81.40
2022-12-15T11:23:07.571Z,81.40
2022-12-15T11:24:07.658Z,81.40
2022-12-15T11:25:07.533Z,81.35
2022-12-15T11:26:07.587Z,81.30
2022-12-15T11:27:07.564Z,81.19
2022-12-15T11:28:07.487Z,81.16
2022-12-15T11:29:07.503Z,81.21
2022-12-15T11:30:07.470Z,81.22
2022-12-15T11:31:07.458Z,81.29
2022-12-15T11:32:07.785Z,81.32
2022-12-15T11:33:07.431Z,81.30
2022-12-15T11:34:07.415Z,81.27
2022-12-15T11:35:07.408Z,81.22
2022-12-15T11:36:07.405Z,81.15
2022-12-15T11:37:07.418Z,81.18
2022-12-15T11:38:07.367Z,81.21
2022-12-15T11:39:07.510Z,81.29
2022-12-15T11:40:07.415Z,81.38
2022-12-15T11:41:07.330Z,81.44
2022-12-15T11:42:07.311Z,81.52
2022-12-15T11:43:07.301Z,81.56
2022-12-15T11:44:07.335Z,81.61
2022-12-15T11:45:07.323Z,81.63
2022-12-15T11:46:07.271Z,81.69
2022-12-15T11:47:07.264Z,81.72
2022-12-15T11:48:07.260Z,81.70
2022-12-15T11:49:07.233Z,81.68
2022-12-15T11:50:07.244Z,81.69
2022-12-15T11:51:07.225Z,81.68
2022-12-15T11:52:07.198Z,81.73
2022-12-15T11:53:07.191Z,81.71
2022-12-15T11:54:07.169Z,81.72
2022-12-15T11:55:07.156Z,81.69
2022-12-15T11:56:07.162Z,81.61
2022-12-15T11:57:07.128Z,81.62
2022-12-15T11:58:07.143Z,81.66
2022-12-15T11:59:07.120Z,81.67
2022-12-15T12:00:07.153Z,81.70
2022-12-15T12:01:07.080Z,81.72
2022-12-15T12:02:07.138Z,81.79
2022-12-15T12:03:07.107Z,81.86
2022-12-15T12:04:07.048Z,81.90
2022-12-15T12:05:07.073Z,81.91
2022-12-15T12:06:07.012Z,81.84
2022-12-15T12:07:07.018Z,81.80
2022-12-15T12:08:06.997Z,81.73
2022-12-15T12:09:07.010Z,81.79
2022-12-15T12:10:06.995Z,81.73
2022-12-15T12:11:07.003Z,81.74
2022-12-15T12:12:06.935Z,81.67
2022-12-15T12:13:06.938Z,81.66
2022-12-15T12:14:11.679Z,81.62
2022-12-15T12:15:06.929Z,81.58
2022-12-15T12:16:06.899Z,81.62
2022-12-15T12:17:06.882Z,81.69
2022-12-15T12:18:06.866Z,81.77
2022-12-15T12:19:06.933Z,81.85
2022-12-15T12:20:11.412Z,81.85
2022-12-15T12:21:06.837Z,81.86
2022-12-15T12:22:06.817Z,81.80
2022-12-15T12:23:06.803Z,81.81
2022-12-15T12:24:06.797Z,81.90
2022-12-15T12:25:06.781Z,81.99
2022-12-15T12:26:06.762Z,81.97
2022-12-15T12:27:06.754Z,81.93
2022-12-15T12:28:06.745Z,81.92
2022-12-15T12:29:06.740Z,81.90
2022-12-15T12:30:06.714Z,81.85
2022-12-15T12:31:06.698Z,81.91
2022-12-15T12:32:06.695Z,81.95
2022-12-15T12:33:06.675Z,81.96
2022-12-15T12:34:06.671Z,81.98
2022-12-15T12:35:30.847Z,81.92
2022-12-15T12:36:06.691Z,81.95
2022-12-15T12:37:06.632Z,82.02
2022-12-15T12:38:06.623Z,82.04
2022-12-15T12:39:06.620Z,82.08
2022-12-15T12:40:06.585Z,82.14
2022-12-15T12:41:06.583Z,82.17
2022-12-15T12:42:06.574Z,82.24
2022-12-15T12:43:11.850Z,82.22
2022-12-15T12:44:06.555Z,82.16
2022-12-15T12:45:06.534Z,82.11
2022-12-15T12:46:06.515Z,82.05
2022-12-15T12:47:06.499Z,82.07
2022-12-15T12:48:06.513Z,82.09
2022-12-15T12:49:06.493Z,82.14
2022-12-15T12:50:06.463Z,82.20
2022-12-15T12:51:06.456Z,82.21
2022-12-15T12:52:06.467Z,82.19